Maryport, United Kingdom
Current Conditions -  °F | °C
As of 2:50 AM on Sunday 26 Oct 2014 (Local Time) from EGOM Reporting Station
Broken Clouds Broken Clouds  
Wind Chill: 52°   Ceiling: 4100
Heat Index: 52°   Visibility: 6mi
Dew Point: 46°   Wind: 26mph
Humidity: 82%   Direction: 240°WSW
Pressure: 29.77"   Gusts: 40mph
Location:  54.71°N, 3.5°W
Report Text: EGOM 260150Z AUTO 24023G35KT 9999 SCT019/// BKN041/// 11/08 Q1008
Loading
Personal Weather Stations






























Interactive Weather Map
Tropical Storm Tracking
New forecast layout! Learn more

10-Day Weather Forecast

Advertisements
Track Severe Weather on mobile